createdAt,value
2022-08-17T00:01:51.912Z,14.01
2022-08-17T00:04:21.016Z,14.19
2022-08-17T00:06:49.599Z,14.12
2022-08-17T00:09:18.601Z,13.89
2022-08-17T00:12:34.866Z,14.14
2022-08-17T00:14:36.248Z,13.64
2022-08-17T00:17:06.467Z,13.76
2022-08-17T00:19:34.059Z,13.69
2022-08-17T00:22:35.053Z,13.89
2022-08-17T00:24:51.663Z,13.96
2022-08-17T00:27:20.194Z,13.94
2022-08-17T00:29:52.109Z,13.68
2022-08-17T00:33:13.839Z,13.75
2022-08-17T00:35:11.340Z,13.95
2022-08-17T00:37:38.979Z,13.96
2022-08-17T00:40:06.730Z,13.75
2022-08-17T00:42:33.718Z,13.80
2022-08-17T00:45:00.478Z,13.52
2022-08-17T00:47:29.414Z,13.54
2022-08-17T00:49:57.004Z,13.56
2022-08-17T00:52:28.927Z,13.54
2022-08-17T00:54:56.127Z,13.76
2022-08-17T00:57:28.367Z,13.72
2022-08-17T01:00:02.550Z,13.50
2022-08-17T01:02:50.870Z,13.66
2022-08-17T01:05:22.390Z,13.61
2022-08-17T01:07:50.763Z,13.64
2022-08-17T01:10:59.577Z,13.63
2022-08-17T01:13:08.119Z,13.36
2022-08-17T01:15:38.368Z,12.84
2022-08-17T01:18:07.902Z,13.49
2022-08-17T01:20:48.249Z,13.26
2022-08-17T01:23:21.057Z,13.36
2022-08-17T01:25:55.240Z,13.15
2022-08-17T01:28:52.919Z,13.33
2022-08-17T01:31:11.677Z,13.19
2022-08-17T01:33:39.048Z,13.10
2022-08-17T01:36:08.037Z,13.35
2022-08-17T01:38:37.368Z,13.32
2022-08-17T01:41:12.515Z,13.40
2022-08-17T01:43:58.028Z,13.23
2022-08-17T01:46:28.746Z,13.21
2022-08-17T01:48:57.493Z,13.25
2022-08-17T01:51:32.696Z,13.26
2022-08-17T01:54:05.238Z,13.16
2022-08-17T01:56:37.428Z,12.91
2022-08-17T01:59:06.362Z,12.84
2022-08-17T02:01:35.117Z,12.82
2022-08-17T02:04:04.926Z,12.42
2022-08-17T02:06:45.303Z,12.89
2022-08-17T02:09:26.298Z,12.90
2022-08-17T02:12:38.591Z,12.97
2022-08-17T02:14:50.318Z,12.91
2022-08-17T02:17:18.204Z,12.97
2022-08-17T02:19:45.216Z,12.99
2022-08-17T02:22:12.500Z,13.00
2022-08-17T02:25:00.651Z,12.99
2022-08-17T02:27:28.040Z,12.74
2022-08-17T02:29:55.321Z,12.34
2022-08-17T02:32:25.478Z,12.88
2022-08-17T02:34:57.236Z,12.79
2022-08-17T02:37:26.333Z,12.77
2022-08-17T02:39:54.231Z,12.88
2022-08-17T02:42:31.394Z,12.83
2022-08-17T02:44:58.088Z,12.73
2022-08-17T02:47:25.408Z,12.67
2022-08-17T02:49:55.908Z,12.73
2022-08-17T02:52:43.101Z,12.67
2022-08-17T02:55:22.256Z,12.74
2022-08-17T02:57:51.327Z,12.65
2022-08-17T03:00:22.450Z,12.72
2022-08-17T03:02:51.669Z,12.33
2022-08-17T03:05:21.276Z,12.41
2022-08-17T03:07:48.761Z,12.45
2022-08-17T03:10:17.254Z,12.63
2022-08-17T03:12:45.913Z,12.80
2022-08-17T03:15:17.567Z,12.71
2022-08-17T03:17:44.595Z,12.77
2022-08-17T03:20:12.892Z,12.48
2022-08-17T03:22:42.975Z,12.54
2022-08-17T03:25:21.413Z,12.63
2022-08-17T03:27:50.275Z,12.68
2022-08-17T03:30:19.524Z,12.51
2022-08-17T03:32:50.449Z,12.52
2022-08-17T03:35:19.482Z,12.54
2022-08-17T03:37:46.588Z,12.52
2022-08-17T03:40:34.429Z,12.52
2022-08-17T03:43:18.818Z,12.26
2022-08-17T03:46:04.588Z,12.48
2022-08-17T03:48:53.858Z,12.18
2022-08-17T03:51:42.697Z,12.25
2022-08-17T03:54:29.664Z,12.26
2022-08-17T03:57:04.371Z,12.36
2022-08-17T03:59:32.005Z,12.20
2022-08-17T04:02:04.987Z,12.24
2022-08-17T04:04:33.441Z,12.22
2022-08-17T04:07:00.248Z,12.24
2022-08-17T04:09:27.591Z,12.22
2022-08-17T04:11:54.590Z,12.23
2022-08-17T04:14:25.575Z,12.30
2022-08-17T04:16:53.725Z,12.21
2022-08-17T04:19:23.433Z,12.11
2022-08-17T04:21:50.232Z,12.14
2022-08-17T04:24:17.760Z,12.04
2022-08-17T04:26:52.141Z,12.10
2022-08-17T04:29:23.273Z,12.19
2022-08-17T04:31:53.072Z,12.22
2022-08-17T04:34:20.214Z,12.18
2022-08-17T04:36:50.312Z,12.17
2022-08-17T04:39:19.155Z,12.20
2022-08-17T04:42:04.736Z,12.30
2022-08-17T04:44:37.579Z,12.22
2022-08-17T04:47:05.322Z,12.23
2022-08-17T04:49:33.358Z,12.35
2022-08-17T04:52:04.596Z,12.47
2022-08-17T04:54:32.100Z,12.61
2022-08-17T04:56:59.903Z,12.64
2022-08-17T04:59:26.726Z,12.66
2022-08-17T05:01:56.007Z,12.71
2022-08-17T05:04:34.187Z,12.79
2022-08-17T05:07:04.426Z,12.73
2022-08-17T05:09:32.092Z,12.73
2022-08-17T05:12:02.611Z,12.81
2022-08-17T05:14:33.326Z,12.92
2022-08-17T05:17:04.599Z,12.91
2022-08-17T05:19:38.297Z,12.72
2022-08-17T05:22:05.724Z,12.99
2022-08-17T05:24:42.586Z,12.92
2022-08-17T05:27:20.171Z,13.09
2022-08-17T05:29:47.047Z,13.16
2022-08-17T05:32:38.675Z,13.30
2022-08-17T05:35:01.916Z,13.20
2022-08-17T05:37:28.503Z,13.40
2022-08-17T05:39:55.231Z,13.43
2022-08-17T05:42:23.105Z,13.26
2022-08-17T05:44:49.807Z,13.49
2022-08-17T05:47:17.443Z,13.67
2022-08-17T05:49:44.249Z,13.76
2022-08-17T05:52:45.511Z,13.95
2022-08-17T05:55:36.772Z,14.09
2022-08-17T05:58:24.445Z,14.27
2022-08-17T06:01:35.413Z,14.35
2022-08-17T06:04:22.358Z,14.36
2022-08-17T06:06:52.489Z,14.58
2022-08-17T06:09:36.067Z,14.66
2022-08-17T06:12:26.273Z,14.67
2022-08-17T06:14:58.861Z,15.00
2022-08-17T06:17:29.152Z,15.09
2022-08-17T06:20:03.176Z,15.34
2022-08-17T06:22:36.871Z,15.48
2022-08-17T06:25:17.978Z,15.67
2022-08-17T06:27:53.510Z,16.01
2022-08-17T06:30:27.701Z,16.30
2022-08-17T06:33:01.313Z,16.57
2022-08-17T06:35:44.511Z,16.80
2022-08-17T06:38:38.531Z,17.23
2022-08-17T06:41:12.600Z,17.37
2022-08-17T06:44:03.816Z,17.47
2022-08-17T06:46:38.353Z,17.57
2022-08-17T06:49:22.007Z,18.05
2022-08-17T06:52:45.255Z,18.31
2022-08-17T06:55:21.439Z,18.78
2022-08-17T06:57:55.608Z,18.98
2022-08-17T07:00:26.964Z,19.02
2022-08-17T07:03:02.339Z,19.18
2022-08-17T07:05:48.239Z,19.33
2022-08-17T07:08:20.101Z,19.55
2022-08-17T07:10:57.808Z,19.64
2022-08-17T07:13:29.308Z,19.81
2022-08-17T07:16:04.680Z,19.94
2022-08-17T07:18:33.362Z,20.02
2022-08-17T07:21:14.176Z,20.12
2022-08-17T07:24:29.512Z,20.40
2022-08-17T07:27:05.719Z,20.40
2022-08-17T07:29:38.560Z,20.67
2022-08-17T07:32:08.338Z,20.78
2022-08-17T07:35:37.934Z,20.99
2022-08-17T07:38:25.530Z,21.12
2022-08-17T07:41:01.950Z,21.30
2022-08-17T07:43:31.733Z,21.40
2022-08-17T07:46:38.065Z,21.56
2022-08-17T07:49:09.416Z,21.73
2022-08-17T07:51:43.224Z,21.86
2022-08-17T07:54:15.765Z,21.99
2022-08-17T07:56:53.656Z,22.01
2022-08-17T07:59:28.646Z,22.07
2022-08-17T08:02:15.689Z,22.33
2022-08-17T08:05:00.945Z,22.55
2022-08-17T08:07:34.687Z,22.73
2022-08-17T08:10:08.081Z,22.74
2022-08-17T08:12:37.681Z,22.89
2022-08-17T08:15:20.971Z,22.99
2022-08-17T08:17:55.645Z,23.17
2022-08-17T08:20:51.338Z,23.23
2022-08-17T08:23:42.821Z,23.21
2022-08-17T08:26:23.067Z,23.37
2022-08-17T08:29:12.505Z,23.47
2022-08-17T08:31:55.244Z,23.55
2022-08-17T08:34:53.348Z,23.61
2022-08-17T08:37:36.699Z,23.85
2022-08-17T08:40:38.327Z,23.99
2022-08-17T08:43:23.396Z,24.14
2022-08-17T08:46:03.523Z,24.40
2022-08-17T08:48:55.956Z,24.47
2022-08-17T08:51:46.158Z,24.66
2022-08-17T08:54:38.748Z,24.68
2022-08-17T08:57:24.360Z,24.73
2022-08-17T09:00:14.881Z,24.99
2022-08-17T09:02:55.650Z,24.99
2022-08-17T09:05:32.522Z,25.10
2022-08-17T09:08:06.312Z,25.33
2022-08-17T09:10:52.019Z,25.46
2022-08-17T09:13:30.311Z,25.60
2022-08-17T09:16:01.965Z,25.69
2022-08-17T09:19:01.132Z,25.71
2022-08-17T09:21:22.633Z,26.03
2022-08-17T09:24:01.415Z,26.04
2022-08-17T09:26:33.076Z,26.19
2022-08-17T09:29:02.761Z,26.51
2022-08-17T09:31:35.503Z,28.89
2022-08-17T09:34:18.836Z,31.77
2022-08-17T09:36:52.468Z,32.53
2022-08-17T09:39:25.383Z,32.36
2022-08-17T09:42:03.239Z,32.00
2022-08-17T09:44:47.748Z,31.64
2022-08-17T09:47:35.049Z,31.82
2022-08-17T09:50:08.293Z,31.53
2022-08-17T09:52:35.806Z,31.62
2022-08-17T09:55:05.971Z,31.30
2022-08-17T09:57:43.199Z,31.05
2022-08-17T10:00:27.484Z,30.80
2022-08-17T10:03:16.729Z,30.58
2022-08-17T10:06:08.511Z,30.76
2022-08-17T10:08:57.565Z,30.57
2022-08-17T10:11:57.532Z,30.44
2022-08-17T10:14:36.758Z,30.82
2022-08-17T10:17:26.439Z,30.39
2022-08-17T10:20:02.253Z,30.38
2022-08-17T10:22:55.072Z,30.62
2022-08-17T10:25:54.648Z,30.68
2022-08-17T10:28:29.552Z,30.83
2022-08-17T10:34:25.251Z,31.04
2022-08-17T10:37:16.783Z,31.25
2022-08-17T10:40:10.655Z,31.52
2022-08-17T10:42:56.429Z,31.86
2022-08-17T10:45:29.582Z,32.03
2022-08-17T10:48:30.126Z,31.95
2022-08-17T10:50:59.834Z,31.64
2022-08-17T10:53:32.743Z,31.90
2022-08-17T10:56:11.628Z,31.84
2022-08-17T10:58:54.455Z,31.71
2022-08-17T11:01:37.824Z,31.59
2022-08-17T11:04:19.629Z,31.69
2022-08-17T11:07:02.063Z,31.95
2022-08-17T11:10:06.082Z,32.20
2022-08-17T11:12:55.435Z,32.70
2022-08-17T11:15:59.427Z,32.80
2022-08-17T11:18:52.563Z,32.90
2022-08-17T11:21:40.222Z,32.49
2022-08-17T11:24:34.964Z,32.56
2022-08-17T11:27:23.970Z,32.58
2022-08-17T11:30:02.287Z,32.85
2022-08-17T11:32:37.315Z,33.18
2022-08-17T11:35:11.858Z,33.13
2022-08-17T11:38:16.238Z,33.48
2022-08-17T11:41:07.576Z,33.93
2022-08-17T11:43:55.913Z,33.94
2022-08-17T11:47:10.147Z,33.91
2022-08-17T11:49:57.922Z,34.50
2022-08-17T11:52:45.985Z,34.47
2022-08-17T11:55:40.714Z,34.18
2022-08-17T11:58:37.225Z,34.92
2022-08-17T12:01:24.571Z,35.06
2022-08-17T12:04:15.669Z,34.73
2022-08-17T12:06:50.667Z,34.57
2022-08-17T12:09:25.021Z,34.74
2022-08-17T12:12:14.443Z,35.34
2022-08-17T12:17:42.972Z,35.33
2022-08-17T12:20:33.314Z,35.74
2022-08-17T12:23:28.475Z,35.93
2022-08-17T12:26:01.236Z,36.41
2022-08-17T12:28:33.415Z,36.29
2022-08-17T12:31:23.808Z,36.65
2022-08-17T12:33:51.843Z,36.73
2022-08-17T12:36:24.743Z,35.45
2022-08-17T12:39:13.074Z,35.30
2022-08-17T12:41:46.849Z,35.05
2022-08-17T12:44:21.960Z,34.00
2022-08-17T12:47:19.388Z,33.59
2022-08-17T12:49:50.574Z,32.85
2022-08-17T12:52:27.150Z,32.59
2022-08-17T12:55:07.533Z,32.72
2022-08-17T12:57:38.573Z,32.82
2022-08-17T13:00:17.850Z,32.83
2022-08-17T13:02:51.353Z,32.70
2022-08-17T13:05:25.944Z,32.69
2022-08-17T13:07:54.545Z,32.07
2022-08-17T13:10:33.053Z,32.17
2022-08-17T13:13:04.483Z,32.17
2022-08-17T13:15:38.162Z,32.16
2022-08-17T13:18:40.189Z,31.71
2022-08-17T13:21:26.893Z,31.75
2022-08-17T13:24:04.551Z,31.82
2022-08-17T13:26:37.362Z,31.74
2022-08-17T13:29:07.634Z,31.51
2022-08-17T13:31:52.328Z,31.55
2022-08-17T13:34:23.821Z,31.69
2022-08-17T13:37:27.149Z,31.71
2022-08-17T13:40:15.063Z,31.68
2022-08-17T13:42:54.320Z,31.68
2022-08-17T13:45:35.637Z,31.79
2022-08-17T13:48:27.113Z,31.76
2022-08-17T13:50:57.117Z,31.84
2022-08-17T13:53:31.118Z,31.89
2022-08-17T13:56:38.032Z,31.82
2022-08-17T13:59:36.082Z,31.40
2022-08-17T14:02:17.295Z,31.32
2022-08-17T14:04:46.992Z,31.52
2022-08-17T14:07:15.958Z,31.29
2022-08-17T14:09:53.209Z,31.51
2022-08-17T14:12:21.833Z,31.63
2022-08-17T14:14:49.504Z,31.53
2022-08-17T14:17:16.426Z,31.46
2022-08-17T14:19:43.809Z,31.31
2022-08-17T14:22:28.174Z,31.35
2022-08-17T14:24:58.599Z,31.22
2022-08-17T14:27:28.012Z,30.92
2022-08-17T14:29:56.393Z,31.04
2022-08-17T14:32:29.921Z,31.00
2022-08-17T14:34:59.595Z,30.91
2022-08-17T14:37:28.839Z,30.98
2022-08-17T14:40:00.184Z,30.98
2022-08-17T14:42:30.051Z,30.96
2022-08-17T14:44:58.601Z,30.96
2022-08-17T14:47:26.575Z,31.00
2022-08-17T14:49:53.275Z,31.08
2022-08-17T14:52:21.787Z,31.19
2022-08-17T14:54:51.269Z,31.29
2022-08-17T14:57:33.115Z,31.51
2022-08-17T15:00:03.513Z,31.65
2022-08-17T15:02:44.727Z,31.85
2022-08-17T15:05:16.473Z,31.85
2022-08-17T15:07:44.709Z,31.74
2022-08-17T15:10:13.878Z,31.68
2022-08-17T15:12:41.924Z,31.77
2022-08-17T15:15:13.175Z,31.74
2022-08-17T15:17:44.757Z,31.58
2022-08-17T15:20:15.463Z,31.61
2022-08-17T15:22:43.100Z,31.47
2022-08-17T15:25:10.555Z,31.40
2022-08-17T15:27:38.664Z,31.60
2022-08-17T15:30:07.410Z,31.57
2022-08-17T15:32:38.020Z,31.59
2022-08-17T15:35:07.819Z,31.36
2022-08-17T15:37:36.386Z,31.25
2022-08-17T15:40:04.526Z,31.24
2022-08-17T15:42:31.751Z,31.30
2022-08-17T15:45:06.551Z,31.18
2022-08-17T15:47:34.099Z,31.06
2022-08-17T15:50:06.159Z,30.92
2022-08-17T15:52:37.968Z,30.76
2022-08-17T15:55:09.854Z,30.85
2022-08-17T15:57:36.567Z,30.76
2022-08-17T16:00:06.190Z,30.82
2022-08-17T16:03:44.452Z,30.79
2022-08-17T16:05:31.243Z,30.71
2022-08-17T16:07:59.890Z,30.50
2022-08-17T16:10:35.365Z,30.52
2022-08-17T16:13:04.412Z,30.48
2022-08-17T16:15:33.006Z,30.41
2022-08-17T16:18:05.211Z,30.32
2022-08-17T16:20:33.371Z,30.33
2022-08-17T16:23:00.270Z,30.34
2022-08-17T16:25:52.029Z,30.29
2022-08-17T16:28:18.619Z,30.26
2022-08-17T16:30:45.878Z,30.24
2022-08-17T16:33:12.643Z,30.17
2022-08-17T16:35:41.866Z,30.13
2022-08-17T16:38:11.260Z,30.21
2022-08-17T16:40:38.064Z,30.12
2022-08-17T16:43:10.316Z,30.09
2022-08-17T16:45:40.246Z,29.87
2022-08-17T16:48:09.421Z,29.92
2022-08-17T16:50:36.785Z,29.77
2022-08-17T16:53:16.206Z,29.87
2022-08-17T16:55:51.948Z,29.83
2022-08-17T16:58:20.038Z,29.86
2022-08-17T17:00:48.751Z,29.82
2022-08-17T17:03:21.739Z,29.56
2022-08-17T17:06:06.584Z,29.48
2022-08-17T17:08:44.493Z,29.46
2022-08-17T17:11:26.924Z,29.34
2022-08-17T17:14:01.453Z,29.33
2022-08-17T17:16:35.457Z,29.15
2022-08-17T17:19:09.439Z,28.96
2022-08-17T17:21:57.068Z,28.95
2022-08-17T17:24:34.367Z,28.77
2022-08-17T17:27:21.117Z,28.74
2022-08-17T17:30:09.950Z,28.65
2022-08-17T17:32:50.318Z,28.49
2022-08-17T17:35:23.238Z,28.35
2022-08-17T17:37:50.499Z,28.36
2022-08-17T17:40:23.142Z,28.19
2022-08-17T17:42:55.205Z,28.03
2022-08-17T17:45:33.375Z,27.91
2022-08-17T17:48:01.511Z,27.63
2022-08-17T17:50:37.025Z,27.52
2022-08-17T17:53:07.620Z,27.29
2022-08-17T17:55:56.079Z,27.17
2022-08-17T17:58:32.515Z,27.00
2022-08-17T18:01:27.403Z,26.78
2022-08-17T18:04:08.319Z,26.56
2022-08-17T18:07:05.440Z,26.36
2022-08-17T18:09:51.670Z,26.14
2022-08-17T18:12:22.033Z,25.96
2022-08-17T18:15:10.998Z,25.83
2022-08-17T18:17:38.032Z,25.57
2022-08-17T18:20:08.487Z,25.38
2022-08-17T18:22:37.167Z,25.32
2022-08-17T18:25:38.990Z,25.24
2022-08-17T18:28:07.932Z,25.05
2022-08-17T18:30:35.000Z,24.89
2022-08-17T18:33:23.745Z,24.83
2022-08-17T18:35:58.877Z,24.63
2022-08-17T18:38:41.462Z,24.62
2022-08-17T18:41:30.703Z,24.41
2022-08-17T18:44:04.377Z,24.20
2022-08-17T18:46:35.943Z,24.02
2022-08-17T18:49:08.532Z,24.14
2022-08-17T18:51:43.256Z,24.20
2022-08-17T18:54:21.168Z,24.22
2022-08-17T18:56:59.020Z,24.20
2022-08-17T18:59:29.930Z,24.15
2022-08-17T19:01:59.882Z,24.10
2022-08-17T19:04:42.446Z,23.98
2022-08-17T19:07:12.070Z,23.86
2022-08-17T19:09:43.824Z,23.71
2022-08-17T19:12:21.614Z,23.59
2022-08-17T19:14:53.873Z,23.48
2022-08-17T19:17:47.639Z,23.33
2022-08-17T19:20:19.688Z,23.18
2022-08-17T19:23:15.531Z,22.99
2022-08-17T19:25:48.827Z,22.91
2022-08-17T19:28:37.514Z,22.87
2022-08-17T19:31:10.080Z,22.59
2022-08-17T19:33:37.556Z,22.65
2022-08-17T19:36:08.742Z,22.68
2022-08-17T19:38:53.772Z,22.68
2022-08-17T19:41:34.340Z,22.56
2022-08-17T19:44:14.189Z,22.46
2022-08-17T19:47:36.654Z,22.56
2022-08-17T19:50:30.322Z,22.40
2022-08-17T19:53:07.225Z,22.47
2022-08-17T19:55:50.989Z,22.54
2022-08-17T19:58:34.435Z,22.31
2022-08-17T20:01:01.657Z,22.30
2022-08-17T20:03:35.650Z,22.30
2022-08-17T20:06:15.089Z,22.41
2022-08-17T20:08:53.887Z,22.45
2022-08-17T20:11:28.313Z,22.47
2022-08-17T20:14:00.535Z,22.40
2022-08-17T20:16:28.594Z,22.17
2022-08-17T20:19:06.343Z,22.30
2022-08-17T20:21:42.536Z,22.07
2022-08-17T20:24:40.432Z,22.24
2022-08-17T20:27:18.956Z,22.07
2022-08-17T20:30:11.510Z,22.25
2022-08-17T20:32:51.860Z,22.34
2022-08-17T20:35:27.366Z,22.27
2022-08-17T20:38:04.318Z,22.20
2022-08-17T20:41:00.686Z,22.12
2022-08-17T20:43:34.523Z,22.16
2022-08-17T20:46:24.424Z,22.11
2022-08-17T20:48:55.224Z,22.05
2022-08-17T20:51:32.524Z,22.01
2022-08-17T20:54:06.556Z,22.08
2022-08-17T20:56:56.164Z,22.09
2022-08-17T20:59:25.694Z,22.11
2022-08-17T21:02:17.663Z,22.00
2022-08-17T21:04:56.825Z,21.98
2022-08-17T21:07:52.496Z,21.88
2022-08-17T21:10:25.836Z,21.92
2022-08-17T21:13:00.340Z,21.98
2022-08-17T21:15:29.435Z,21.95
2022-08-17T21:18:31.838Z,21.74
2022-08-17T21:21:21.794Z,21.65
2022-08-17T21:24:07.609Z,21.76
2022-08-17T21:26:55.087Z,21.82
2022-08-17T21:29:31.489Z,21.68
2022-08-17T21:31:59.730Z,21.75
2022-08-17T21:34:29.225Z,21.76
2022-08-17T21:36:56.797Z,21.64
2022-08-17T21:39:33.209Z,21.66
2022-08-17T21:42:00.689Z,21.69
2022-08-17T21:44:33.953Z,21.67
2022-08-17T21:47:22.031Z,21.80
2022-08-17T21:49:49.883Z,21.84
2022-08-17T21:52:22.224Z,21.81
2022-08-17T21:54:57.996Z,21.84
2022-08-17T21:57:27.598Z,21.73
2022-08-17T21:59:57.925Z,21.56
2022-08-17T22:05:36.446Z,21.58
2022-08-17T22:08:16.583Z,21.71
2022-08-17T22:10:46.204Z,21.81
2022-08-17T22:13:17.687Z,21.95
2022-08-17T22:15:48.393Z,22.04
2022-08-17T22:18:27.835Z,22.20
2022-08-17T22:21:01.030Z,22.35
2022-08-17T22:23:55.517Z,22.33
2022-08-17T22:26:27.773Z,22.32
2022-08-17T22:28:57.889Z,22.37
2022-08-17T22:31:27.807Z,22.36
2022-08-17T22:34:00.156Z,22.27
2022-08-17T22:36:29.179Z,21.96
2022-08-17T22:39:02.389Z,21.75
2022-08-17T22:41:50.946Z,21.00
2022-08-17T22:44:26.107Z,20.83
2022-08-17T22:46:55.340Z,20.37
2022-08-17T22:49:26.703Z,20.04
2022-08-17T22:52:06.909Z,19.82
2022-08-17T22:55:00.030Z,19.88
2022-08-17T22:57:54.723Z,19.83
2022-08-17T23:00:38.129Z,19.90
2022-08-17T23:03:13.620Z,19.89
2022-08-17T23:05:46.066Z,19.84
2022-08-17T23:08:14.229Z,19.67
2022-08-17T23:10:41.850Z,19.76
2022-08-17T23:13:11.888Z,19.62
2022-08-17T23:15:41.612Z,19.50
2022-08-17T23:18:09.641Z,19.59
2022-08-17T23:20:37.886Z,19.62
2022-08-17T23:23:06.769Z,19.49
2022-08-17T23:25:35.093Z,19.37
2022-08-17T23:28:06.116Z,19.20
2022-08-17T23:30:39.305Z,19.02
2022-08-17T23:33:09.225Z,19.31
2022-08-17T23:35:39.198Z,18.99
2022-08-17T23:38:12.617Z,18.83
2022-08-17T23:40:40.091Z,18.69
2022-08-17T23:43:23.607Z,18.54
2022-08-17T23:45:54.594Z,18.42
2022-08-17T23:48:36.031Z,18.49
2022-08-17T23:51:09.941Z,18.55
2022-08-17T23:53:41.862Z,18.74
2022-08-17T23:56:11.245Z,18.88
2022-08-17T23:58:43.376Z,18.67
